createdAt,value
2023-05-12T00:00:43.710Z,112.55
2023-05-12T00:01:43.570Z,112.15
2023-05-12T00:02:43.686Z,112.37
2023-05-12T00:03:44.081Z,110.85
2023-05-12T00:04:43.709Z,111.01
2023-05-12T00:05:43.744Z,111.75
2023-05-12T00:06:43.753Z,110.69
2023-05-12T00:07:43.788Z,111.91
2023-05-12T00:08:43.831Z,110.90
2023-05-12T00:09:43.821Z,111.14
2023-05-12T00:10:44.221Z,111.81
2023-05-12T00:11:43.882Z,111.06
2023-05-12T00:12:43.935Z,110.04
2023-05-12T00:13:44.031Z,109.77
2023-05-12T00:14:44.033Z,109.92
2023-05-12T00:15:44.247Z,110.84
2023-05-12T00:16:44.128Z,111.81
2023-05-12T00:17:44.088Z,110.84
2023-05-12T00:18:44.149Z,110.98
2023-05-12T00:19:44.163Z,110.06
2023-05-12T00:20:44.245Z,110.44
2023-05-12T00:21:44.209Z,110.94
2023-05-12T00:22:44.238Z,111.67
2023-05-12T00:23:44.282Z,110.10
2023-05-12T00:24:44.313Z,108.77
2023-05-12T00:25:44.344Z,110.18
2023-05-12T00:26:44.407Z,111.23
2023-05-12T00:27:44.391Z,111.59
2023-05-12T00:28:44.435Z,109.97
2023-05-12T00:29:44.471Z,110.80
2023-05-12T00:30:44.542Z,111.09
2023-05-12T00:31:44.623Z,111.48
2023-05-12T00:32:44.653Z,111.32
2023-05-12T00:33:44.648Z,110.48
2023-05-12T00:34:44.682Z,109.36
2023-05-12T00:35:45.227Z,107.91
2023-05-12T00:36:44.745Z,110.06
2023-05-12T00:37:44.777Z,110.21
2023-05-12T00:38:44.828Z,110.68
2023-05-12T00:39:44.866Z,109.91
2023-05-12T00:40:45.247Z,109.39
2023-05-12T00:41:44.942Z,109.28
2023-05-12T00:43:09.500Z,25.00
2023-05-12T00:44:09.481Z,25.00
2023-05-12T00:45:09.468Z,25.00
2023-05-12T00:46:09.992Z,25.00
2023-05-12T00:47:09.453Z,25.00
2023-05-12T00:48:09.487Z,25.27
2023-05-12T00:49:09.441Z,24.48
2023-05-12T00:50:09.442Z,30.73
2023-05-12T00:51:09.415Z,26.87
2023-05-12T00:52:09.419Z,29.11
2023-05-12T00:53:09.392Z,26.30
2023-05-12T00:54:09.429Z,26.63
2023-05-12T00:55:09.405Z,22.89
2023-05-12T00:56:09.481Z,28.66
2023-05-12T00:57:09.383Z,27.46
2023-05-12T00:58:09.411Z,27.29
2023-05-12T00:59:09.400Z,28.48
2023-05-12T01:00:09.355Z,26.09
2023-05-12T01:01:09.496Z,29.26
2023-05-12T01:02:09.468Z,30.40
2023-05-12T01:03:09.458Z,30.11
2023-05-12T01:04:09.352Z,27.48
2023-05-12T01:05:09.338Z,26.59
2023-05-12T01:06:09.346Z,25.00
2023-05-12T01:07:09.292Z,29.94
2023-05-12T01:08:09.293Z,27.80
2023-05-12T01:09:09.301Z,34.29
2023-05-12T01:10:09.301Z,32.13
2023-05-12T01:11:09.274Z,30.18
2023-05-12T01:12:09.281Z,29.66
2023-05-12T01:13:09.289Z,30.75
2023-05-12T01:14:09.239Z,29.90
2023-05-12T01:15:09.288Z,27.42
2023-05-12T01:16:09.251Z,29.09
2023-05-12T01:17:09.296Z,30.57
2023-05-12T01:18:09.312Z,27.81
2023-05-12T01:19:09.301Z,28.34
2023-05-12T01:20:09.234Z,27.45
2023-05-12T01:21:09.497Z,26.55
2023-05-12T01:22:09.228Z,28.55
2023-05-12T01:23:09.213Z,26.02
2023-05-12T01:24:09.264Z,32.37
2023-05-12T01:25:09.163Z,28.93
2023-05-12T01:26:09.200Z,29.08
2023-05-12T01:27:09.175Z,28.13
2023-05-12T01:28:09.247Z,28.94
2023-05-12T01:29:09.256Z,28.51
2023-05-12T01:30:09.302Z,30.30
2023-05-12T01:31:09.424Z,28.44
2023-05-12T01:32:09.384Z,29.07
2023-05-12T01:33:09.437Z,31.73
2023-05-12T01:34:09.480Z,28.17
2023-05-12T01:35:09.549Z,25.02
2023-05-12T01:36:09.967Z,27.63
2023-05-12T01:37:09.605Z,31.12
2023-05-12T01:38:09.654Z,29.73
2023-05-12T01:39:09.668Z,26.52
2023-05-12T01:40:09.786Z,27.80
2023-05-12T01:41:09.781Z,29.58
2023-05-12T01:42:09.799Z,27.74
2023-05-12T01:43:09.866Z,26.86
2023-05-12T01:44:09.910Z,32.80
2023-05-12T01:45:09.961Z,28.40
2023-05-12T01:46:10.499Z,31.83
2023-05-12T01:47:10.040Z,30.45
2023-05-12T01:48:10.087Z,31.99
2023-05-12T01:49:10.101Z,33.60
2023-05-12T01:50:10.160Z,26.66
2023-05-12T01:51:10.485Z,42.11
2023-05-12T01:52:10.246Z,41.28
2023-05-12T01:53:10.266Z,44.60
2023-05-12T01:54:10.277Z,45.22
2023-05-12T01:55:10.371Z,45.94
2023-05-12T01:56:10.402Z,42.83
2023-05-12T01:57:10.407Z,42.43
2023-05-12T01:58:10.467Z,44.74
2023-05-12T01:59:10.600Z,49.07
2023-05-12T02:00:10.530Z,42.70
2023-05-12T02:01:10.593Z,44.41
2023-05-12T02:02:10.728Z,47.53
2023-05-12T02:03:10.740Z,47.29
2023-05-12T02:04:10.796Z,42.67
2023-05-12T02:05:10.721Z,44.42
2023-05-12T02:06:10.791Z,45.28
2023-05-12T02:07:11.460Z,48.63
2023-05-12T02:08:10.899Z,44.92
2023-05-12T02:09:10.930Z,45.14
2023-05-12T02:10:10.978Z,48.19
2023-05-12T02:11:11.052Z,46.14
2023-05-12T02:12:11.139Z,46.56
2023-05-12T02:13:11.154Z,43.40
2023-05-12T02:14:11.203Z,45.14
2023-05-12T02:15:11.264Z,45.93
2023-05-12T02:16:11.536Z,46.18
2023-05-12T02:17:11.330Z,43.09
2023-05-12T02:18:11.384Z,43.50
2023-05-12T02:19:11.466Z,44.05
2023-05-12T02:20:11.435Z,45.07
2023-05-12T02:21:11.508Z,48.20
2023-05-12T02:22:11.547Z,43.16
2023-05-12T02:23:11.572Z,45.34
2023-05-12T02:24:13.542Z,46.94
2023-05-12T02:25:11.592Z,47.05
2023-05-12T02:26:11.989Z,45.64
2023-05-12T02:27:11.616Z,44.64
2023-05-12T02:28:11.570Z,43.41
2023-05-12T02:29:11.595Z,46.46
2023-05-12T02:30:11.568Z,43.93
2023-05-12T02:31:11.560Z,41.82
2023-05-12T02:32:11.686Z,44.73
2023-05-12T02:33:11.578Z,48.15
2023-05-12T02:34:11.543Z,43.56
2023-05-12T02:35:11.518Z,42.93
2023-05-12T02:36:11.542Z,44.54
2023-05-12T02:37:11.536Z,47.66
2023-05-12T02:38:11.508Z,44.48
2023-05-12T02:39:11.539Z,43.53
2023-05-12T02:40:11.489Z,44.44
2023-05-12T02:41:11.531Z,43.95
2023-05-12T02:42:11.507Z,42.43
2023-05-12T02:43:11.484Z,42.12
2023-05-12T02:44:11.454Z,44.39
2023-05-12T02:45:11.460Z,40.10
2023-05-12T02:46:11.499Z,41.39
2023-05-12T02:47:11.476Z,41.76
2023-05-12T02:48:11.466Z,43.03
2023-05-12T02:49:11.415Z,40.72
2023-05-12T02:50:11.429Z,41.68
2023-05-12T02:51:11.418Z,42.26
2023-05-12T02:52:11.537Z,41.45
2023-05-12T02:53:11.424Z,41.62
2023-05-12T02:54:11.417Z,42.78
2023-05-12T02:55:11.414Z,44.42
2023-05-12T02:56:11.418Z,41.80
2023-05-12T02:57:11.369Z,42.21
2023-05-12T02:58:11.382Z,44.51
2023-05-12T02:59:11.379Z,39.52
2023-05-12T03:00:11.403Z,40.90
2023-05-12T03:01:11.852Z,44.49
2023-05-12T03:02:11.631Z,45.27
2023-05-12T03:03:11.393Z,41.50
2023-05-12T03:04:11.386Z,38.22
2023-05-12T03:05:11.419Z,43.06
2023-05-12T03:06:11.486Z,43.02
2023-05-12T03:07:12.036Z,42.77
2023-05-12T03:08:11.546Z,38.93
2023-05-12T03:09:11.590Z,40.18
2023-05-12T03:10:11.694Z,39.39
2023-05-12T03:11:11.711Z,40.65
2023-05-12T03:12:11.784Z,37.82
2023-05-12T03:13:11.809Z,42.40
2023-05-12T03:14:11.853Z,44.71
2023-05-12T03:15:11.871Z,42.41
2023-05-12T03:16:11.928Z,42.18
2023-05-12T03:17:12.101Z,41.86
2023-05-12T03:18:12.060Z,43.92
2023-05-12T03:19:12.228Z,40.44
2023-05-12T03:20:12.152Z,40.79
2023-05-12T03:21:12.179Z,45.74
2023-05-12T03:22:12.535Z,41.25
2023-05-12T03:23:12.297Z,41.01
2023-05-12T03:24:12.372Z,41.48
2023-05-12T03:25:12.388Z,39.69
2023-05-12T03:26:12.462Z,40.70
2023-05-12T03:27:12.500Z,38.71
2023-05-12T03:28:12.540Z,38.36
2023-05-12T03:29:12.580Z,36.52
2023-05-12T03:30:12.656Z,38.59
2023-05-12T03:31:12.733Z,39.83
2023-05-12T03:32:12.769Z,39.18
2023-05-12T03:33:12.807Z,38.85
2023-05-12T03:34:12.867Z,38.88
2023-05-12T03:35:12.897Z,40.40
2023-05-12T03:36:12.969Z,35.04
2023-05-12T03:37:13.563Z,36.38
2023-05-12T03:38:13.054Z,38.89
2023-05-12T03:39:13.099Z,38.42
2023-05-12T03:40:13.167Z,39.13
2023-05-12T03:41:13.208Z,38.96
2023-05-12T03:42:13.259Z,38.23
2023-05-12T03:43:13.338Z,38.83
2023-05-12T03:44:13.420Z,40.40
2023-05-12T03:45:13.418Z,36.77
2023-05-12T03:46:13.535Z,38.04
2023-05-12T03:47:13.641Z,38.62
2023-05-12T03:48:13.571Z,35.78
2023-05-12T03:49:13.590Z,40.24
2023-05-12T03:50:13.640Z,38.80
2023-05-12T03:51:13.706Z,37.95
2023-05-12T03:52:14.022Z,36.64
2023-05-12T03:53:13.832Z,38.68
2023-05-12T03:54:13.913Z,37.41
2023-05-12T03:55:13.920Z,39.61
2023-05-12T03:56:13.969Z,36.05
2023-05-12T03:57:14.073Z,41.16
2023-05-12T03:58:14.078Z,37.32
2023-05-12T03:59:15.009Z,37.09
2023-05-12T04:00:14.182Z,36.16
2023-05-12T04:01:14.236Z,39.10
2023-05-12T04:02:14.337Z,35.28
2023-05-12T04:03:14.460Z,37.60
2023-05-12T04:04:14.542Z,37.94
2023-05-12T04:05:14.445Z,35.51
2023-05-12T04:06:14.532Z,39.64
2023-05-12T04:07:15.029Z,38.15
2023-05-12T04:08:14.551Z,40.25
2023-05-12T04:09:14.643Z,38.80
2023-05-12T04:10:14.688Z,39.97
2023-05-12T04:11:14.717Z,37.60
2023-05-12T04:12:14.784Z,40.63
2023-05-12T04:13:14.841Z,39.46
2023-05-12T04:14:14.902Z,40.03
2023-05-12T04:15:14.901Z,39.48
2023-05-12T04:16:14.945Z,40.18
2023-05-12T04:17:15.029Z,41.56
2023-05-12T04:18:15.069Z,38.20
2023-05-12T04:19:15.132Z,39.07
2023-05-12T04:20:15.185Z,39.73
2023-05-12T04:21:15.249Z,40.64
2023-05-12T04:22:16.103Z,42.59
2023-05-12T04:23:15.352Z,41.07
2023-05-12T04:24:15.391Z,38.05
2023-05-12T04:25:15.459Z,40.90
2023-05-12T04:26:15.557Z,39.82
2023-05-12T04:27:16.059Z,40.90
2023-05-12T04:28:15.590Z,40.98
2023-05-12T04:29:15.637Z,38.74
2023-05-12T04:30:15.674Z,40.60
2023-05-12T04:31:15.744Z,41.67
2023-05-12T04:32:16.232Z,40.69
2023-05-12T04:33:15.812Z,38.06
2023-05-12T04:34:15.904Z,37.55
2023-05-12T04:35:15.929Z,39.90
2023-05-12T04:36:15.996Z,38.29
2023-05-12T04:37:16.021Z,41.43
2023-05-12T04:38:16.075Z,37.27
2023-05-12T04:39:16.117Z,35.55
2023-05-12T04:40:16.156Z,38.85
2023-05-12T04:41:16.230Z,37.77
2023-05-12T04:42:16.280Z,39.97
2023-05-12T04:44:16.314Z,39.26
2023-05-12T04:45:16.295Z,37.32
2023-05-12T04:46:16.389Z,41.39
2023-05-12T04:47:16.528Z,36.84
2023-05-12T04:48:16.259Z,35.96
2023-05-12T04:49:16.282Z,34.83
2023-05-12T04:50:16.295Z,33.63
2023-05-12T04:51:16.270Z,37.97
2023-05-12T04:52:16.250Z,36.92
2023-05-12T04:53:16.241Z,36.52
2023-05-12T04:54:16.231Z,60.14
2023-05-12T04:55:16.277Z,63.33
2023-05-12T04:56:16.228Z,58.62
2023-05-12T04:57:16.226Z,63.99
2023-05-12T04:58:16.225Z,62.77
2023-05-12T04:59:16.208Z,65.17
2023-05-12T05:00:16.211Z,71.43
2023-05-12T05:01:16.263Z,71.17
2023-05-12T05:02:16.228Z,67.71
2023-05-12T05:03:16.282Z,69.43
2023-05-12T05:04:16.189Z,71.78
2023-05-12T05:05:16.182Z,71.57
2023-05-12T05:06:16.157Z,73.54
2023-05-12T05:07:16.539Z,76.92
2023-05-12T05:08:16.181Z,78.28
2023-05-12T05:09:16.166Z,78.09
2023-05-12T05:10:16.148Z,80.85
2023-05-12T05:11:16.142Z,78.67
2023-05-12T05:12:16.577Z,82.30
2023-05-12T05:13:16.138Z,80.42
2023-05-12T05:14:16.128Z,84.35
2023-05-12T05:15:16.114Z,82.80
2023-05-12T05:16:16.142Z,80.64
2023-05-12T05:17:16.126Z,82.15
2023-05-12T05:18:16.108Z,80.96
2023-05-12T05:19:22.774Z,80.83
2023-05-12T05:20:17.199Z,81.08
2023-05-12T05:21:16.100Z,81.51
2023-05-12T05:22:16.068Z,81.67
2023-05-12T05:23:16.067Z,81.12
2023-05-12T05:24:16.090Z,82.86
2023-05-12T05:25:16.086Z,80.90
2023-05-12T05:26:16.069Z,79.94
2023-05-12T05:27:16.055Z,81.22
2023-05-12T05:28:16.044Z,78.66
2023-05-12T05:29:16.036Z,82.31
2023-05-12T05:30:16.034Z,78.96
2023-05-12T05:31:16.092Z,76.33
2023-05-12T05:32:16.090Z,78.63
2023-05-12T05:33:16.144Z,78.26
2023-05-12T05:34:16.215Z,78.85
2023-05-12T05:35:16.214Z,76.82
2023-05-12T05:36:16.227Z,76.25
2023-05-12T05:37:16.584Z,77.46
2023-05-12T05:38:16.354Z,78.92
2023-05-12T05:39:16.405Z,78.55
2023-05-12T05:40:16.417Z,73.90
2023-05-12T05:41:16.458Z,76.71
2023-05-12T05:42:16.508Z,77.03
2023-05-12T05:43:16.545Z,71.53
2023-05-12T05:44:16.616Z,73.19
2023-05-12T05:45:16.603Z,74.06
2023-05-12T05:46:16.633Z,75.00
2023-05-12T05:47:16.712Z,73.66
2023-05-12T05:48:16.694Z,81.20
2023-05-12T05:49:16.694Z,90.62
2023-05-12T05:50:16.704Z,87.40
2023-05-12T05:51:16.750Z,87.87
2023-05-12T05:52:17.056Z,95.68
2023-05-12T05:53:17.065Z,101.69
2023-05-12T05:54:16.919Z,122.69
2023-05-12T05:55:17.126Z,130.66
2023-05-12T05:56:16.993Z,135.12
2023-05-12T05:57:17.062Z,138.21
2023-05-12T05:58:17.053Z,149.73
2023-05-12T05:59:17.104Z,156.66
2023-05-12T06:00:17.120Z,170.40
2023-05-12T06:01:17.135Z,178.79
2023-05-12T06:02:17.248Z,168.22
2023-05-12T06:03:17.324Z,177.30
2023-05-12T06:04:17.272Z,175.90
2023-05-12T06:05:17.417Z,181.18
2023-05-12T06:06:17.248Z,181.62
2023-05-12T06:07:17.328Z,188.59
2023-05-12T06:08:17.329Z,186.80
2023-05-12T06:09:17.322Z,191.77
2023-05-12T06:10:17.417Z,188.44
2023-05-12T06:11:18.083Z,193.24
2023-05-12T06:12:17.573Z,197.55
2023-05-12T06:13:17.414Z,196.61
2023-05-12T06:14:17.482Z,196.60
2023-05-12T06:15:17.622Z,201.94
2023-05-12T06:16:17.567Z,198.75
2023-05-12T06:17:17.522Z,199.01
2023-05-12T06:18:17.564Z,200.82
2023-05-12T06:19:17.580Z,201.52
2023-05-12T06:20:17.612Z,200.04
2023-05-12T06:21:17.740Z,201.10
2023-05-12T06:22:17.673Z,202.49
2023-05-12T06:23:18.092Z,202.55
2023-05-12T06:24:17.712Z,203.03
2023-05-12T06:25:17.884Z,200.95
2023-05-12T06:26:17.790Z,206.00
2023-05-12T06:27:17.810Z,203.37
2023-05-12T06:28:17.845Z,205.57
2023-05-12T06:29:17.843Z,205.63
2023-05-12T06:30:18.037Z,206.18
2023-05-12T06:31:17.988Z,203.84
2023-05-12T06:32:18.179Z,203.82
2023-05-12T06:33:18.001Z,205.99
2023-05-12T06:34:18.004Z,204.27
2023-05-12T06:35:18.219Z,202.90
2023-05-12T06:36:18.130Z,201.49
2023-05-12T06:37:18.140Z,203.65
2023-05-12T06:38:18.614Z,203.52
2023-05-12T06:39:18.230Z,199.72
2023-05-12T06:40:18.251Z,199.22
2023-05-12T06:41:18.545Z,199.93
2023-05-12T06:42:18.297Z,200.03
2023-05-12T06:43:18.577Z,199.94
2023-05-12T06:44:18.355Z,198.83
2023-05-12T06:45:18.632Z,199.75
2023-05-12T06:46:18.520Z,198.82
2023-05-12T06:47:18.487Z,200.01
2023-05-12T06:48:18.581Z,195.72
2023-05-12T06:49:18.536Z,196.09
2023-05-12T06:50:18.555Z,197.64
2023-05-12T06:51:18.602Z,195.48
2023-05-12T06:52:18.643Z,197.16
2023-05-12T06:53:18.646Z,192.41
2023-05-12T06:54:18.704Z,199.79
2023-05-12T06:55:19.021Z,204.46
2023-05-12T06:56:18.761Z,214.15
2023-05-12T06:57:18.831Z,217.65
2023-05-12T06:58:18.889Z,216.90
2023-05-12T06:59:20.762Z,218.91
2023-05-12T07:00:18.939Z,228.27
2023-05-12T07:01:18.933Z,238.29
2023-05-12T07:02:18.977Z,242.07
2023-05-12T07:03:19.135Z,241.65
2023-05-12T07:04:18.939Z,185.58
2023-05-12T07:05:19.282Z,157.10
2023-05-12T07:06:19.030Z,124.59
2023-05-12T07:07:19.006Z,111.09
2023-05-12T07:08:19.025Z,115.63
2023-05-12T07:09:19.072Z,103.41
2023-05-12T07:10:19.101Z,77.67
2023-05-12T07:11:19.109Z,46.06
2023-05-12T07:12:19.189Z,35.92
2023-05-12T07:13:19.222Z,25.19
2023-05-12T07:14:19.290Z,25.76
2023-05-12T07:15:19.684Z,26.30
2023-05-12T07:16:19.369Z,25.00
2023-05-12T07:17:19.323Z,25.00
2023-05-12T07:18:19.316Z,25.00
2023-05-12T07:19:19.336Z,26.24
2023-05-12T07:20:19.371Z,26.74
2023-05-12T07:21:19.408Z,26.65
2023-05-12T07:22:19.448Z,25.12
2023-05-12T07:23:19.476Z,25.00
2023-05-12T07:24:19.484Z,26.91
2023-05-12T07:25:19.820Z,30.80
2023-05-12T07:26:19.592Z,28.31
2023-05-12T07:27:19.593Z,30.80
2023-05-12T07:28:19.619Z,25.00
2023-05-12T07:29:19.679Z,35.70
2023-05-12T07:30:19.721Z,43.99
2023-05-12T07:31:19.792Z,37.00
2023-05-12T07:32:19.773Z,35.42
2023-05-12T07:33:20.110Z,31.10
2023-05-12T07:34:20.003Z,26.43
2023-05-12T07:35:20.028Z,25.48
2023-05-12T07:36:21.829Z,25.00
2023-05-12T07:37:19.938Z,26.08
2023-05-12T07:38:19.972Z,28.86
2023-05-12T07:39:20.060Z,25.63
2023-05-12T07:40:20.039Z,25.00
2023-05-12T07:41:20.060Z,28.75
2023-05-12T07:42:20.103Z,29.29
2023-05-12T07:43:20.143Z,44.32
2023-05-12T07:44:20.175Z,48.27
2023-05-12T07:45:20.393Z,46.55
2023-05-12T07:46:20.325Z,40.26
2023-05-12T07:47:20.308Z,35.75
2023-05-12T07:48:20.628Z,38.30
2023-05-12T07:49:20.389Z,43.79
2023-05-12T07:50:20.592Z,55.23
2023-05-12T07:51:20.457Z,106.54
2023-05-12T07:52:20.478Z,131.36
2023-05-12T07:53:20.627Z,130.10
2023-05-12T07:54:20.512Z,133.34
2023-05-12T07:55:20.851Z,120.42
2023-05-12T07:56:20.595Z,105.96
2023-05-12T07:57:20.644Z,125.96
2023-05-12T07:58:21.117Z,122.85
2023-05-12T07:59:20.638Z,79.45
2023-05-12T08:00:20.678Z,50.88
2023-05-12T08:01:20.729Z,55.27
2023-05-12T08:02:20.797Z,62.57
2023-05-12T08:03:21.172Z,68.08
2023-05-12T08:04:20.793Z,82.90
2023-05-12T08:05:20.977Z,106.87
2023-05-12T08:06:20.791Z,127.11
2023-05-12T08:07:20.802Z,150.05
2023-05-12T08:08:21.115Z,165.90
2023-05-12T08:09:20.878Z,178.60
2023-05-12T08:10:20.916Z,187.37
2023-05-12T08:11:20.935Z,190.60
2023-05-12T08:12:21.690Z,193.37
2023-05-12T08:13:21.061Z,191.52
2023-05-12T08:14:21.068Z,199.53
2023-05-12T08:15:21.401Z,202.79
2023-05-12T08:16:21.271Z,204.59
2023-05-12T08:17:21.269Z,206.30
2023-05-12T08:18:21.649Z,211.96
2023-05-12T08:19:21.351Z,214.91
2023-05-12T08:20:21.426Z,216.50
2023-05-12T08:21:21.504Z,216.29
2023-05-12T08:22:21.584Z,217.49
2023-05-12T08:23:21.545Z,215.53
2023-05-12T08:24:21.560Z,220.34
2023-05-12T08:25:21.899Z,222.06
2023-05-12T08:26:21.677Z,218.08
2023-05-12T08:27:21.712Z,225.68
2023-05-12T08:28:21.716Z,226.21
2023-05-12T08:29:21.810Z,221.73
2023-05-12T08:30:21.856Z,227.75
2023-05-12T08:31:21.902Z,229.47
2023-05-12T08:32:21.928Z,228.66
2023-05-12T08:33:21.948Z,230.76
2023-05-12T08:34:22.003Z,232.18
2023-05-12T08:35:22.152Z,230.83
2023-05-12T08:36:22.092Z,231.40
2023-05-12T08:37:22.118Z,235.60
2023-05-12T08:38:22.301Z,237.00
2023-05-12T08:39:22.176Z,240.16
2023-05-12T08:40:22.303Z,236.76
2023-05-12T08:41:22.257Z,238.92
2023-05-12T08:42:22.280Z,241.72
2023-05-12T08:43:22.362Z,243.01
2023-05-12T08:44:22.390Z,244.47
2023-05-12T08:45:22.524Z,245.08
2023-05-12T08:46:22.526Z,250.23
2023-05-12T08:47:22.513Z,215.35
2023-05-12T08:48:22.641Z,194.51
2023-05-12T08:49:22.507Z,178.64
2023-05-12T08:50:22.585Z,159.93
2023-05-12T08:51:22.601Z,148.33
2023-05-12T08:52:22.550Z,157.67
2023-05-12T08:53:22.625Z,163.81
2023-05-12T08:54:22.651Z,149.43
2023-05-12T08:55:23.874Z,140.12
2023-05-12T08:57:22.642Z,103.49
2023-05-12T08:58:33.948Z,108.95
2023-05-12T08:59:23.623Z,105.51
2023-05-12T09:00:22.764Z,115.74
2023-05-12T09:01:22.628Z,132.07
2023-05-12T09:02:22.686Z,156.03
2023-05-12T09:03:22.707Z,203.16
2023-05-12T09:04:22.823Z,224.35
2023-05-12T09:05:22.979Z,221.33
2023-05-12T09:06:22.596Z,222.43
2023-05-12T09:07:22.559Z,235.87
2023-05-12T09:08:22.573Z,241.57
2023-05-12T09:09:22.542Z,246.23
2023-05-12T09:11:22.549Z,218.52
2023-05-12T09:12:22.537Z,251.75
2023-05-12T09:13:22.624Z,252.36
2023-05-12T09:14:22.506Z,249.23
2023-05-12T09:15:22.739Z,251.47
2023-05-12T09:16:22.562Z,253.50
2023-05-12T09:17:22.534Z,250.76
2023-05-12T09:18:22.691Z,250.00
2023-05-12T09:19:22.492Z,249.94
2023-05-12T09:20:31.020Z,250.00
2023-05-12T09:21:23.465Z,250.45
2023-05-12T09:22:22.471Z,251.80
2023-05-12T09:23:22.649Z,256.69
2023-05-12T09:24:22.502Z,264.06
2023-05-12T09:25:22.512Z,270.36
2023-05-12T09:26:22.468Z,259.95
2023-05-12T09:27:22.433Z,249.59
2023-05-12T09:28:22.447Z,250.42
2023-05-12T09:29:30.621Z,249.07
2023-05-12T09:30:23.412Z,249.18
2023-05-12T09:31:23.168Z,250.17
2023-05-12T09:32:22.393Z,252.79
2023-05-12T09:33:22.409Z,257.67
2023-05-12T09:34:22.394Z,264.10
2023-05-12T09:35:22.391Z,251.02
2023-05-12T09:36:22.350Z,248.67
2023-05-12T09:37:22.401Z,240.99
2023-05-12T09:38:22.412Z,250.00
2023-05-12T09:39:22.769Z,248.80
2023-05-12T09:40:22.358Z,247.50
2023-05-12T09:41:22.329Z,248.91
2023-05-12T09:42:22.339Z,248.79
2023-05-12T09:43:22.353Z,249.60
2023-05-12T09:44:22.683Z,231.61
2023-05-12T09:45:22.556Z,217.79
2023-05-12T09:46:22.373Z,186.17
2023-05-12T09:47:22.369Z,182.73
2023-05-12T09:48:22.283Z,177.50
2023-05-12T09:49:22.658Z,199.10
2023-05-12T09:50:22.283Z,201.13
2023-05-12T09:51:22.355Z,193.22
2023-05-12T09:52:22.404Z,201.14
2023-05-12T09:53:22.447Z,201.99
2023-05-12T09:54:22.465Z,213.27
2023-05-12T09:55:22.507Z,214.42
2023-05-12T09:56:22.557Z,209.10
2023-05-12T09:57:22.581Z,206.00
2023-05-12T09:58:22.634Z,198.97
2023-05-12T09:59:22.713Z,193.26
2023-05-12T10:00:36.957Z,195.36
2023-05-12T10:01:24.211Z,195.57
2023-05-12T10:02:22.787Z,190.69
2023-05-12T10:03:22.729Z,186.53
2023-05-12T10:04:22.804Z,160.77
2023-05-12T10:05:22.903Z,157.54
2023-05-12T10:06:22.704Z,167.37
2023-05-12T10:07:22.741Z,169.03
2023-05-12T10:08:22.675Z,172.67
2023-05-12T10:09:22.704Z,168.77
2023-05-12T10:10:22.662Z,163.56
2023-05-12T10:11:22.683Z,163.09
2023-05-12T10:12:22.672Z,163.45
2023-05-12T10:13:22.687Z,166.22
2023-05-12T10:14:22.877Z,160.26
2023-05-12T10:15:22.894Z,158.21
2023-05-12T10:16:22.874Z,150.85
2023-05-12T10:17:22.916Z,143.10
2023-05-12T10:18:23.012Z,134.32
2023-05-12T10:19:22.957Z,117.66
2023-05-12T10:20:23.053Z,111.09
2023-05-12T10:21:23.090Z,98.19
2023-05-12T10:22:23.127Z,90.21
2023-05-12T10:23:23.165Z,84.25
2023-05-12T10:24:23.233Z,79.93
2023-05-12T10:25:23.367Z,64.14
2023-05-12T10:26:23.295Z,56.64
2023-05-12T10:27:23.317Z,57.25
2023-05-12T10:28:23.324Z,54.93
2023-05-12T10:29:23.647Z,47.75
2023-05-12T10:30:23.395Z,43.30
2023-05-12T10:31:23.449Z,37.23
2023-05-12T10:32:23.409Z,34.26
2023-05-12T10:33:23.402Z,33.34
2023-05-12T10:34:23.647Z,26.35
2023-05-12T10:35:23.462Z,25.83
2023-05-12T10:36:23.458Z,25.70
2023-05-12T10:37:23.493Z,28.34
2023-05-12T10:38:23.504Z,32.70
2023-05-12T10:39:23.518Z,33.99
2023-05-12T10:40:23.533Z,33.21
2023-05-12T10:41:23.536Z,35.87
2023-05-12T10:42:23.557Z,31.03
2023-05-12T10:43:23.546Z,29.89
2023-05-12T10:44:23.569Z,28.85
2023-05-12T10:45:23.649Z,37.86
2023-05-12T10:46:23.671Z,35.15
2023-05-12T10:47:23.681Z,25.94
2023-05-12T10:48:23.717Z,25.00
2023-05-12T10:49:23.754Z,36.39
2023-05-12T10:50:23.777Z,31.54
2023-05-12T10:51:23.819Z,38.39
2023-05-12T10:52:23.837Z,34.25
2023-05-12T10:53:23.885Z,25.00
2023-05-12T10:54:23.964Z,30.45
2023-05-12T10:55:24.219Z,25.74
2023-05-12T10:56:24.133Z,25.56
2023-05-12T10:57:24.203Z,25.08
2023-05-12T10:58:24.440Z,23.32
2023-05-12T10:59:24.838Z,21.91
2023-05-12T11:00:24.643Z,25.85
2023-05-12T11:01:24.477Z,25.00
2023-05-12T11:02:24.914Z,26.88
2023-05-12T11:03:25.315Z,27.66
2023-05-12T11:04:24.399Z,27.83
2023-05-12T11:05:24.613Z,30.71
2023-05-12T11:06:25.321Z,27.70
2023-05-12T11:07:24.771Z,27.45
2023-05-12T11:08:24.931Z,25.92
2023-05-12T11:09:24.961Z,26.84
2023-05-12T11:10:24.624Z,26.31
2023-05-12T11:11:25.108Z,25.00
2023-05-12T11:12:24.495Z,24.22
2023-05-12T11:13:24.540Z,24.74
2023-05-12T11:14:24.689Z,27.15
2023-05-12T11:15:24.560Z,26.49
2023-05-12T11:16:24.579Z,25.06
2023-05-12T11:17:24.617Z,25.47
2023-05-12T11:18:24.665Z,28.03
2023-05-12T11:19:24.648Z,27.23
2023-05-12T11:20:24.646Z,25.21
2023-05-12T11:21:24.679Z,25.31
2023-05-12T11:22:24.696Z,25.00
2023-05-12T11:23:24.731Z,34.41
2023-05-12T11:24:25.151Z,37.33
2023-05-12T11:25:24.907Z,40.32
2023-05-12T11:26:24.808Z,43.38
2023-05-12T11:27:24.817Z,47.05
2023-05-12T11:28:24.849Z,49.18
2023-05-12T11:29:24.917Z,49.29
2023-05-12T11:30:24.923Z,50.63
2023-05-12T11:31:25.046Z,50.27
2023-05-12T11:32:25.092Z,51.95
2023-05-12T11:33:25.077Z,54.44
2023-05-12T11:34:25.237Z,54.02
2023-05-12T11:35:25.159Z,53.41
2023-05-12T11:36:25.211Z,50.17
2023-05-12T11:37:25.222Z,47.69
2023-05-12T11:38:25.289Z,40.56
2023-05-12T11:39:25.336Z,45.14
2023-05-12T11:40:25.437Z,43.68
2023-05-12T11:41:25.482Z,46.33
2023-05-12T11:42:25.988Z,39.88
2023-05-12T11:43:25.568Z,33.71
2023-05-12T11:44:25.702Z,26.87
2023-05-12T11:45:25.601Z,20.54
2023-05-12T11:46:25.634Z,25.00
2023-05-12T11:47:25.639Z,25.39
2023-05-12T11:48:25.644Z,25.00
2023-05-12T11:49:25.676Z,26.39
2023-05-12T11:50:25.764Z,25.20
2023-05-12T11:51:25.716Z,27.18
2023-05-12T11:52:25.754Z,28.61
2023-05-12T11:53:26.559Z,32.46
2023-05-12T11:54:26.189Z,35.58
2023-05-12T11:55:25.862Z,39.28
2023-05-12T11:56:25.889Z,40.11
2023-05-12T11:57:25.955Z,41.67
2023-05-12T11:58:25.924Z,43.43
2023-05-12T11:59:25.948Z,46.46
2023-05-12T12:00:25.962Z,45.45
2023-05-12T12:01:25.956Z,45.71
2023-05-12T12:02:26.037Z,47.56
2023-05-12T12:03:26.019Z,47.03
2023-05-12T12:04:26.103Z,48.09
2023-05-12T12:05:26.022Z,50.64
2023-05-12T12:06:26.045Z,50.60
2023-05-12T12:07:26.062Z,50.43
2023-05-12T12:08:26.141Z,50.42
2023-05-12T12:09:26.203Z,48.60
2023-05-12T12:10:26.281Z,50.72
2023-05-12T12:11:26.312Z,51.89
2023-05-12T12:12:26.325Z,55.09
2023-05-12T12:13:26.372Z,52.85
2023-05-12T12:14:26.706Z,51.51
2023-05-12T12:15:26.487Z,52.36
2023-05-12T12:16:26.589Z,50.51
2023-05-12T12:17:26.639Z,48.62
2023-05-12T12:18:26.648Z,51.24
2023-05-12T12:19:26.774Z,53.96
2023-05-12T12:20:27.237Z,55.31
2023-05-12T12:21:26.809Z,55.91
2023-05-12T12:22:26.825Z,58.02
2023-05-12T12:23:26.899Z,57.03
2023-05-12T12:24:26.923Z,57.78
2023-05-12T12:25:26.965Z,58.60
2023-05-12T12:26:27.036Z,59.92
2023-05-12T12:27:27.033Z,56.45
2023-05-12T12:28:27.071Z,57.41
2023-05-12T12:29:27.130Z,55.26
2023-05-12T12:30:27.701Z,55.99
2023-05-12T12:31:27.310Z,53.57
2023-05-12T12:32:27.408Z,55.12
2023-05-12T12:33:27.312Z,55.68
2023-05-12T12:34:27.322Z,56.22
2023-05-12T12:35:27.709Z,58.02
2023-05-12T12:36:27.425Z,55.99
2023-05-12T12:37:27.436Z,56.75
2023-05-12T12:38:27.492Z,55.94
2023-05-12T12:39:27.524Z,56.62
2023-05-12T12:40:27.711Z,53.58
2023-05-12T12:41:27.614Z,53.14
2023-05-12T12:42:27.660Z,51.70
2023-05-12T12:43:27.708Z,54.14
2023-05-12T12:44:27.759Z,55.19
2023-05-12T12:45:28.223Z,56.57
2023-05-12T12:46:27.852Z,58.19
2023-05-12T12:47:27.901Z,55.95
2023-05-12T12:48:27.932Z,54.89